Sierra Vista Municipal Libby Army Air Field
KFHU : now visible

Aeroporto :











RITROVATECI SU...

 
LOGIN :

Iscrizione | Disclaimer

   EN    FR    IT 

 









Sommario :    VFR   VFR Marginale   IFR   IFR Intensivo   IFR Molto Intensivo
Visibilità : 
Base nubi : 
>= 8 km
>= 3000ft
5 / 8 km
1000 / 3000 ft
1500m / 5 km
500 / 1000 ft
800 / 1500m
200 / 500 ft
< 800m
< 200 ft
Simboli :   Temporali  Nebbia  Neve Forte  Precipitazioni Forti  Vento > 20 kt






- Altitudine del aeroporto : 4719 ft
- Codice IATA : FHU


KFHU - Sierra Vista Municipal Libby Army Air Field

ULTIMO METAR :
  • 201058Z AUTO 19005KT 10SM CLR 07/00 A3017 RMK AO2 SLP174 T00721003

METARs OBSOLETI :
  • 200958Z AUTO 20005KT 9SM CLR 08/00 A3017 RMK AO2 SLP170 T00781004
  • 200858Z AUTO 19007KT 9SM CLR 09/00 A3017 RMK AO2 SLP167 T00911002 50001

TAF TAF KFHU
Valido dal 20 a 10 ore il 21 a 16 ore UTC


201001Z 2010/2116 VRB06KT 9999 SKC QNH3015INS
BECMG 2017/2018 10012KT 9999 OVC160 QNH3015INS
BECMG 2111/2112 09009KT 9999 OVC100 QNH3027INS TX22/2021Z TN03/2014Z



MetMap, La meteo Aeronautica in un colpo d'occhio ! - Copyright ORBIFLY Dicembre 2007 - Disclaimer

ORBIFLY MET'MAP TEAM :

Programmazione e sviluppo : Alexandra Zaïnal
Concezione : Baudouin d'Aumeries
Aiuto per la programmazione : Marc-Olivier Méhu
Supporto tecnico e logistico : Manuel Goepfert
Aiuto per la traduzione : Arnaldo La Scala

Contatto : metmap@orbifly.com




FONTI E CREDITI :

   NOAA       Earth
Advisory